x

Buoy I01 - Eastern Maine Shelf (44034) Wave Buoy

5:04am - Sat 25th Jun 2016 All times are EDT. -4 hours from GMT.

  • Sig Wave height 2.0ft
  • Peak Period 6s
  • Wind
    7mph, 9mph gusts
  • Sea Temp 53°f
  • 空気 Temp 53°f
  • Sea Pressure 1021.9mb
  • Buoy I01 - Eastern Maine Shelf
  • Buoy I01 - Eastern Maine Shelf

More Historic Weather Station data

Upgrade to MSW Pro to gain access to the past 30 days of data for over 8000 Wavebouys and Weather Stations around the globe.

Join Pro

Comparision Forecast

View Surf forecast
   
Sat 06/25 5:04am 2ft 6s 7 9 mph 1021.9mb 53f 53f
4:04am 2.5ft 8s 4
mph
1021.4mb 53f 53f
3:04am 2ft 8s 4
mph
1021.4mb 53f 53f
2:04am 2ft 6s 4
mph
1021.2mb 53f 54f
1:04am 2.5ft 8s 7 9 mph 1021.1mb 54f 54f
12:04am 2ft 6s 7
mph
1020.8mb 54f 54f
Fri 06/24 11:04pm 2ft 6s 7 9 mph 1020.8mb 53f 55f
10:04pm 2ft 8s 4 7 mph 1021mb 54f 55f
9:04pm 2.5ft 8s 9
mph
1020.5mb 54f 56f
8:04pm 2.5ft 8s 9
mph
1019.9mb 53f 55f
7:04pm 2.5ft 8s 7 9 mph 1019.5mb 52f 55f
6:04pm 2.5ft 8s 9
mph
1019mb 53f 56f
5:04pm 2.5ft 8s 9 11 mph 1018.7mb 53f 56f
4:04pm 1.6ft 8s 11
mph
1018.6mb 53f 56f
3:04pm 2ft 6s 11
mph
1018.6mb 53f 56f
2:04pm 2.5ft 8s 9 11 mph 1018.3mb 53f 56f
1:04pm 2.5ft 8s 7
mph
1018.3mb 53f 56f
12:04pm 2.5ft 8s 7 9 mph 1018.2mb 55f 57f
11:04am 2.5ft 8s 2 4 mph 1018mb 53f 59f
9:04am 3ft 8s 2 4 mph 1017.2mb 52f 56f
8:04am 3ft 8s 7 9 mph 1016.5mb 52f 55f
7:04am 3.5ft 8s 9
mph
1015.8mb 51f 55f
6:04am 3ft 8s 9 11 mph 1014.9mb 52f 55f
5:04am 3.5ft 8s 7
mph
1013.9mb 51f 54f
4:04am 2.5ft 8s 4
mph
1013mb 51f 53f
3:04am 3.5ft 8s 7 9 mph 1012.2mb 51f 53f
2:04am 3ft 8s 4 7 mph 1011.7mb 52f 53f
1:04am 3.5ft 8s 9 11 mph 1011.9mb 51f 53f
12:04am 3.5ft 8s 4 7 mph 1011.9mb 52f 53f
Thu 06/23 11:04pm 3.5ft 8s 4 7 mph 1012mb 53f 53f
10:04pm 3.5ft 8s 4 7 mph 1011.9mb 53f 53f
9:04pm 3.5ft 8s 4 7 mph 1011.6mb 53f 55f
8:04pm 3.5ft 8s 4 9 mph 1011.4mb 54f 56f
7:04pm 3.5ft 8s 4
mph
1011.2mb 53f 55f
6:04pm 3.5ft 8s 7 9 mph 1010.8mb 53f 57f
5:04pm 3.5ft 8s 7
mph
1010.8mb 52f 56f
4:04pm 4ft 8s 9 11 mph 1010.6mb 53f 56f
3:04pm 4ft 6s 9
mph
1010.7mb 52f 55f
2:04pm 3.5ft 11s 11
mph
1010.7mb 52f 56f
1:04pm 4.5ft 8s 7 9 mph 1010.9mb 52f 55f
12:04pm 4.5ft 8s 7 9 mph 1011.3mb 52f 55f
11:04am 5.5ft 11s 9 11 mph 1011.3mb 51f 54f
10:04am 4.5ft 8s 9
mph
1011.9mb 51f 53f
9:04am 4ft 8s 11 13 mph 1012.2mb 50f 54f
8:04am 4ft 8s 7
mph
1011.4mb 50f 53f
7:04am 4.5ft 11s 7 9 mph 1011mb 51f 55f
6:04am 3.5ft 8s 9 11 mph 1011.2mb 50f 55f
5:04am 3ft 8s 7 9 mph 1010.4mb 51f 53f
4:04am 3.5ft 8s 4
mph
1009.8mb 51f 53f
3:04am 3.5ft 8s 4 7 mph 1010mb 51f 53f
2:04am 3.5ft 8s 11 13 mph 1010mb 51f 54f
1:04am 3.5ft 8s 11 13 mph 1009.8mb 51f 54f
12:04am 3.5ft 8s 13 16 mph 1009.9mb 52f 54f
Wed 06/22 11:04pm 4ft 8s 9 11 mph 1009.8mb 52f 54f
9:04pm 4ft 8s 11 13 mph 1008.6mb 51f 55f
8:04pm 4.5ft 8s 9 11 mph 1007.4mb 52f 54f
7:04pm 4ft 8s 11 13 mph 1007.1mb 52f 56f
6:04pm 4ft 8s 4
mph
1006.9mb 52f 55f
5:04pm 4.5ft 8s 4 7 mph 1007.3mb 52f 54f
4:04pm 5ft 8s 25 29 mph 1008.7mb 52f 57f
3:04pm 4ft 8s 4 7 mph 1006.9mb 53f 56f
2:04pm 4.5ft 8s 4 7 mph 1007mb 52f 59f
1:04pm 4ft 6s 2
mph
1007.3mb 54f 58f
12:04pm 4.5ft 8s 7
mph
1007.2mb 55f 57f
11:04am 4ft 8s 4 7 mph 1007.9mb 55f 58f
10:04am 4ft 8s 4 7 mph 1008.1mb 52f 58f
9:04am 4ft 8s 4
mph
1008.3mb 52f 56f
8:04am 4.5ft 8s 2 4 mph 1008.5mb 52f 58f
7:04am 4.5ft 8s 2
mph
1008.3mb 52f 57f
6:04am 4.5ft 8s 2 4 mph 1008.2mb 51f 56f
5:04am 5ft 8s 2 4 mph 1008.1mb 52f 55f
4:04am 5ft 8s 2
mph
1007.9mb 51f 55f
3:04am 5ft 8s 2 4 mph 1007.6mb 51f 55f
2:04am 4.5ft 8s 4
mph
1007.1mb 51f 56f
1:04am 4.5ft 8s 2
mph
1007.4mb 51f 57f
12:04am 5ft 11s 4 7 mph 1007.4mb 51f 57f
Tue 06/21 11:04pm 4.5ft 8s 7
mph
1007.3mb 51f 56f
10:04pm 5ft 11s 4 7 mph 1006.5mb 51f 55f
9:04pm 5ft 11s 7
mph
1005.4mb 52f 54f
8:04pm 6ft 11s 7
mph
1004.9mb 52f 56f
7:04pm 5.5ft 6s 4
mph
1004.4mb 52f 56f
6:04pm 6.5ft 6s 7 11 mph 1003.8mb 52f 56f
5:04pm 6ft 8s 9 11 mph 1003.8mb 52f 56f
4:04pm 5.5ft 11s 11 13 mph 1004mb 52f 56f
3:04pm 6.5ft 11s 16 18 mph 1004.1mb 52f 56f
1:04pm 5ft 6s 11 13 mph 1004.5mb 51f 55f
12:04pm 5ft 6s 13
mph
1004.8mb 51f 56f
11:04am 5ft 6s 16 18 mph 1005mb 51f 55f